South Amherst, Ohio
Current Conditions -  °F | °C
As of 8:13 AM on Tuesday 21 Oct 2014 (Local Time) from KLPR Reporting Station
Overcast Overcast  
Wind Chill: 46°   Ceiling: 2800
Heat Index: 49°   Visibility: 10mi
Dew Point: 47°   Wind: 7mph
Humidity: 93%   Direction: 350°N
Pressure: 29.92"   Gusts: NA
Location:  41.3705°N, 82.2583°W
Report Text: KLPR 211213Z AUTO 35006KT 10SM FEW017 BKN028 OVC080 09/08 A2992 RMK AO2 T00940083 TSNO
Loading
Personal Weather Stations






























Interactive Weather Map
Tropical Storm Tracking
New forecast layout! Learn more

10-Day Weather Forecast

Advertisements
Track Severe Weather on mobile